GW3532 Weather Reports


time (UTC)temp
F
wind
direction
speed
knots
gust
knots
rain 1hr
in
rain 24hr
in
rain mn
in
humidity
%
barometer
mb
20260505153012 72 269 0.9 6.1 0.00 0.00 0.00 52 1015.8
20260505151527 71 250 1.7 6.1 0.00 0.00 0.00 53 1015.7
20260505124523 66 91 0.0 0.9 0.00 0.00 0.00 66 1015.5
20260505123022 62 90 0.0 0.9 0.00 0.00 0.00 73 1015.5
20260505121510 59 90 0.0 0.9 0.00 0.00 0.00 77 1015.3
20260505120017 56 90 0.0 0.9 0.00 0.00 0.00 81 1015.3
20260505114519 54 91 0.0 0.0 0.00 0.00 0.00 89 1015.2
20260505113033 50 92 0.0 0.0 0.00 0.00 0.00 94 1015.1
20260505111538 47 92 0.0 0.9 0.00 0.00 0.00 94 1015.0
20260505101533 48 88 0.0 0.0 0.00 0.00 0.00 92 1014.6
20260505100026 48 88 0.0 0.0 0.00 0.00 0.00 92 1014.6
20260505094512 49 88 0.0 0.0 0.00 0.00 0.00 90 1014.5
20260505093016 49 88 0.0 0.0 0.00 0.00 0.00 89 1014.7
20260505091521 50 88 0.0 0.0 0.00 0.00 0.00 88 1014.6
20260505090030 51 88 0.0 0.0 0.00 0.00 0.00 86 1014.6
20260505084530 51 88 0.0 0.0 0.00 0.00 0.00 86 1014.4
20260505083015 52 88 0.0 0.9 0.00 0.00 0.00 84 1014.2
20260505081521 53 88 0.0 0.0 0.00 0.00 0.00 81 1014.1
20260505074507 57 88 0.0 0.9 0.00 0.00 0.00 74 1013.9
20260505073014 58 196 0.0 0.9 0.00 0.00 0.00 72 1013.9
20260505071517 59 289 0.0 2.6 0.00 0.00 0.00 69 1014.0
20260505070024 60 270 0.0 1.7 0.00 0.00 0.00 67 1014.0
20260505064524 61 232 1.7 4.3 0.00 0.00 0.00 66 1013.9
20260505061515 60 165 0.0 2.6 0.00 0.00 0.00 68 1013.9
20260505060018 60 57 0.0 2.6 0.00 0.00 0.00 69 1013.7
20260505054524 60 53 0.0 2.6 0.00 0.00 0.00 70 1013.7
20260505053027 59 21 0.0 1.7 0.00 0.00 0.00 72 1013.5
20260505051512 59 108 0.0 2.6 0.00 0.00 0.00 72 1013.5
20260505041525 60 109 0.0 0.0 0.00 0.00 0.00 71 1013.5
20260505040033 61 137 0.0 0.9 0.00 0.00 0.00 68 1013.5
20260505034527 61 98 0.0 1.7 0.00 0.00 0.00 67 1013.6
20260505033022 61 106 0.0 2.6 0.00 0.00 0.00 69 1013.6
20260505031524 62 107 0.0 0.9 0.00 0.00 0.00 67 1013.8
20260505030024 63 12 0.0 1.7 0.00 0.00 0.00 65 1013.8
20260505024516 63 176 0.0 1.7 0.00 0.00 0.00 65 1013.9
20260505023003 64 236 0.0 6.1 0.00 0.00 0.00 63 1013.9
20260505021504 64 235 0.9 2.6 0.00 0.00 0.00 64 1013.8
20260505020012 64 80 0.0 5.2 0.00 0.00 0.00 64 1013.5
20260505014508 63 276 0.0 3.5 0.00 0.00 0.00 66 1013.7
20260505013004 63 266 0.0 1.7 0.00 0.00 0.00 67 1013.5
20260505011504 63 283 0.0 0.9 0.00 0.00 0.00 66 1013.3
20260505010004 64 205 0.0 1.7 0.00 0.00 0.00 63 1013.3
20260505004514 66 96 0.0 0.9 0.00 0.00 0.00 61 1013.0
20260505003010 67 111 0.0 1.7 0.00 0.00 0.00 59 1013.0
20260505001504 69 148 0.0 3.5 0.00 0.00 0.00 57 1013.0
20260505000003 70 154 0.0 1.7 0.00 0.00 0.00 55 1012.8
20260504234505 70 234 0.0 0.9 0.00 0.00 0.00 56 1012.8
20260504233008 71 248 0.0 0.9 0.00 0.00 0.00 54 1012.8
20260504231509 72 224 0.0 1.7 0.00 0.00 0.00 52 1012.8
20260504230003 73 133 0.0 3.5 0.00 0.00 0.00 51 1012.7
20260504224506 74 231 0.9 6.1 0.00 0.00 0.00 48 1012.9
20260504223009 74 275 1.7 6.1 0.00 0.00 0.00 46 1013.0
20260504221511 75 278 1.7 7.8 0.00 0.00 0.00 43 1013.0
20260504220029 77 219 3.5 11.3 0.00 0.00 0.00 42 1013.0
20260504214504 78 272 2.6 7.8 0.00 0.00 0.00 43 1013.0
20260504213008 79 261 2.6 9.6 0.00 0.00 0.00 43 1012.9
20260504211508 78 329 1.7 8.7 0.00 0.00 0.00 45 1013.1
20260504210013 79 219 2.6 7.8 0.00 0.00 0.00 44 1013.2
20260504204531 78 234 3.5 9.6 0.00 0.00 0.00 45 1013.4
20260504203015 78 207 2.6 9.6 0.00 0.00 0.00 44 1013.4
20260504201507 78 242 4.3 12.2 0.00 0.00 0.00 45 1013.7
20260504200010 78 254 2.6 8.7 0.00 0.00 0.00 45 1013.9
20260504194516 78 216 3.5 10.4 0.00 0.00 0.00 45 1014.0
20260504193020 79 275 2.6 7.8 0.00 0.00 0.00 44 1014.3
20260504191522 78 235 3.5 7.8 0.00 0.00 0.00 45 1014.5
20260504190012 78 219 1.7 7.8 0.00 0.00 0.00 45 1014.7
20260504184513 77 225 2.6 7.8 0.00 0.00 0.00 47 1014.9
20260504183017 77 267 3.5 7.8 0.00 0.00 0.00 47 1015.2
20260504181521 76 224 1.7 6.1 0.00 0.00 0.00 49 1015.3
20260504174515 75 274 0.9 7.8 0.00 0.00 0.00 51 1015.5
20260504173016 74 216 2.6 8.7 0.00 0.00 0.00 47 1015.9
20260504171506 73 249 4.3 12.2 0.00 0.00 0.00 48 1016.1